Urb Caparra Hls Ind Park, Puerto Rico
Current Conditions -  °F | °C
As of 6:56 PM on Saturday 25 Oct 2014 (Local Time) from TJSJ Reporting Station
Few Clouds Few Clouds  
Wind Chill: 85°   Ceiling: Unl
Heat Index: 93°   Visibility: 10mi
Dew Point: 75°   Wind: 6mph
Humidity: 72%   Direction: 140°SE
Pressure: 29.85"   Gusts: NA
Location:  18.3864°N, 66.1143°W
Report Text: TJSJ 252256Z 14005KT 10SM FEW035 29/24 A2985 RMK AO2 SLP108 T02940239
Loading
Personal Weather Stations






























Interactive Weather Map
Tropical Storm Tracking
New forecast layout! Learn more

10-Day Weather Forecast

Advertisements
Track Severe Weather on mobile